Eviapetrol II — SY6858 — position and weather

sailwx.info

Track history (hours):
 
Tides and Currents Weather Stations Pressure Air Temp Water Temp Dewpoint Dewpoint Depression Visibility Wind Speed Wind Dir Waves Ship Positions

Eviapetrol II

Last reported at 2018-Jun-23 09:30 UTC. Time now 2018-Jun-23 09:51 UTC.
Position N 37°54' E 023°07'.

Length 78 m; draft 4.1 m.

Type: Tanker. MMSI: 240493000.

Date/timePositionNaut miles runAvg speedWind from/ knotsBaromVisibWave heightAir tempDewpointWater temp
2018-Jun-23 09:30N 37°54' E 023°07'4 8.5
2018-Jun-23 09:00N 37°54' E 023°02'4 6.7
2018-Jun-23 08:26N 37°57' E 022°58'3 6.5
2018-Jun-23 08:00N 37°58' E 022°55'5 9.9
2018-Jun-23 07:30N 38°01' E 022°50'510.5
2018-Jun-23 07:00N 38°04' E 022°44'610.7
2018-Jun-23 06:29N 38°06' E 022°38'  
2018-Jun-20 01:55N 38°05' E 022°42'4 9.3
2018-Jun-20 01:30N 38°03' E 022°46'5 9.3
2018-Jun-20 01:00N 38°00' E 022°51'5 9.0
2018-Jun-20 00:30N 37°58' E 022°56'4 5.8
2018-Jun-19 23:46N 37°55' E 023°00'1 5.0
2018-Jun-19 23:30N 37°55' E 023°01'4 7.7
2018-Jun-19 23:01N 37°53' E 023°06'5 9.2
2018-Jun-19 22:30N 37°54' E 023°12'5 9.6
2018-Jun-19 22:00N 37°56' E 023°17'5 9.3
2018-Jun-19 21:30N 37°57' E 023°23'3 5.8
2018-Jun-19 21:00N 37°59' E 023°25'4 7.4
2018-Jun-19 20:30N 38°01' E 023°29'1 2.8
2018-Jun-19 19:59N 38°01' E 023°31'0 0.0
2018-Jun-19 19:29N 38°01' E 023°31'0 0.0
2018-Jun-19 18:59N 38°01' E 023°31'0 0.0
2018-Jun-19 18:29N 38°01' E 023°31'0 0.0
2018-Jun-19 17:59N 38°01' E 023°31'0 0.0
2018-Jun-19 17:23N 38°01' E 023°31'0 0.0
2018-Jun-19 16:59N 38°01' E 023°31'0 0.0
2018-Jun-19 16:30N 38°01' E 023°31'0 0.0
2018-Jun-19 16:00N 38°01' E 023°31'1 1.4
2018-Jun-19 15:30N 38°02' E 023°30'0 0.4
2018-Jun-19 14:58N 38°02' E 023°31'0 0.0
2018-Jun-19 14:28N 38°02' E 023°31'0 0.0
2018-Jun-19 13:58N 38°02' E 023°31'0 0.0
2018-Jun-19 13:28N 38°02' E 023°31'0 0.0
2018-Jun-19 12:58N 38°02' E 023°31'0 0.0
2018-Jun-19 12:28N 38°02' E 023°31'0 0.0
2018-Jun-19 11:58N 38°02' E 023°31'0 0.0
2018-Jun-19 11:25N 38°02' E 023°31'0 0.0
2018-Jun-19 10:58N 38°02' E 023°31'0 0.0
2018-Jun-19 10:25N 38°02' E 023°31'0 0.0
2018-Jun-19 09:58N 38°02' E 023°31'0 0.0
2018-Jun-19 09:28N 38°02' E 023°31'0 0.0
2018-Jun-19 08:58N 38°02' E 023°31'0 0.0
2018-Jun-19 08:28N 38°02' E 023°31'0 0.0
2018-Jun-19 07:55N 38°02' E 023°31'0 0.0
2018-Jun-19 07:28N 38°02' E 023°31'0 0.0
2018-Jun-19 06:58N 38°02' E 023°31'0 0.0
2018-Jun-19 06:28N 38°02' E 023°31'0 0.0
2018-Jun-19 05:58N 38°02' E 023°31'0 0.0
2018-Jun-19 05:28N 38°02' E 023°31'0 0.0
2018-Jun-19 04:55N 38°02' E 023°31'0 0.0
2018-Jun-19 04:28N 38°02' E 023°31'0 0.0
2018-Jun-19 03:55N 38°02' E 023°31'0 0.0
2018-Jun-19 03:28N 38°02' E 023°31'0 0.0
2018-Jun-19 02:58N 38°02' E 023°31'0 0.0
2018-Jun-19 02:28N 38°02' E 023°31'0 0.0
2018-Jun-19 01:58N 38°02' E 023°31'0 0.0
2018-Jun-19 01:28N 38°02' E 023°31'0 0.0
2018-Jun-19 00:58N 38°02' E 023°31'0 0.0
2018-Jun-19 00:28N 38°02' E 023°31'0 0.0
2018-Jun-18 23:58N 38°02' E 023°31'0 0.3
2018-Jun-18 23:30N 38°02' E 023°30'1 1.2
2018-Jun-18 22:52N 38°01' E 023°31'0 0.1
2018-Jun-18 22:30N 38°01' E 023°31'0 0.0
2018-Jun-18 22:00N 38°01' E 023°31'0 0.0
2018-Jun-18 21:30N 38°01' E 023°31'0 0.0
2018-Jun-18 21:00N 38°01' E 023°31'0 0.0
2018-Jun-18 20:30N 38°01' E 023°31'0 0.1
2018-Jun-18 19:59N 38°01' E 023°31'2 4.4
2018-Jun-18 19:31N 38°01' E 023°29'3 6.9
2018-Jun-18 19:01N 37°59' E 023°25'3 5.8
2018-Jun-18 18:30N 37°57' E 023°23'5 9.3
2018-Jun-18 18:01N 37°55' E 023°17'5 9.3
2018-Jun-18 17:31N 37°54' E 023°11'5 9.3
2018-Jun-18 17:00N 37°53' E 023°06'4 8.1
2018-Jun-18 16:31N 37°55' E 023°01'3 5.8
2018-Jun-18 16:01N 37°57' E 022°58'3 3.1
2018-Jun-18 15:13N 37°58' E 022°55'1 6.1
2018-Jun-18 15:00N 37°59' E 022°54'5 9.5
2018-Jun-18 14:31N 38°01' E 022°49'5 9.5
2018-Jun-18 13:57N 38°04' E 022°43'  
2018-Jun-16 09:04N 38°05' E 022°41'1 9.5
2018-Jun-16 08:57N 38°05' E 022°42'5 9.5
2018-Jun-16 08:26N 38°02' E 022°48'4 9.4
2018-Jun-16 08:00N 38°00' E 022°52'4 8.7
2018-Jun-16 07:30N 37°58' E 022°57'4 4.7
2018-Jun-16 06:43N 37°55' E 023°00'1 4.5
2018-Jun-16 06:30N 37°55' E 023°01'2 3.5
2018-Jun-16 06:00N 37°54' E 023°03'4 7.6
2018-Jun-16 05:30N 37°54' E 023°08'5 9.1
2018-Jun-16 05:00N 37°55' E 023°13'5 9.3
2018-Jun-16 04:30N 37°56' E 023°19'4 8.7
2018-Jun-16 04:00N 37°57' E 023°24'3 5.5
2018-Jun-16 03:30N 37°60' E 023°26'4 7.1
2018-Jun-16 03:00N 38°01' E 023°30'0 0.3
2018-Jun-16 02:30N 38°01' E 023°30'0 0.3
2018-Jun-16 02:00N 38°01' E 023°30'0 0.5
2018-Jun-16 01:30N 38°02' E 023°30'1 1.0
2018-Jun-16 00:59N 38°02' E 023°31'0 0.0
2018-Jun-16 00:29N 38°02' E 023°31'0 0.0
2018-Jun-15 23:59N 38°02' E 023°31'0 0.0
2018-Jun-15 23:29N 38°02' E 023°31'0 0.0
2018-Jun-15 22:59N 38°02' E 023°31'0 0.0
2018-Jun-15 22:29N 38°02' E 023°31'0 0.0
2018-Jun-15 21:59N 38°02' E 023°31'0 0.0
2018-Jun-15 21:29N 38°02' E 023°31'0 0.0
2018-Jun-15 20:53N 38°02' E 023°31'0 0.0
2018-Jun-15 20:29N 38°02' E 023°31'0 0.0
2018-Jun-15 19:50N 38°02' E 023°31'0 0.0
2018-Jun-15 19:26N 38°02' E 023°31'0 0.0
2018-Jun-15 18:53N 38°02' E 023°31'0 0.0
2018-Jun-15 18:29N 38°02' E 023°31'0 0.0
2018-Jun-15 17:59N 38°02' E 023°31'0 0.0
2018-Jun-15 17:29N 38°02' E 023°31'0 0.0
2018-Jun-15 16:59N 38°02' E 023°31'0 0.0
2018-Jun-15 16:26N 38°02' E 023°31'0 0.0
2018-Jun-15 15:56N 38°02' E 023°31'0 0.0
2018-Jun-15 15:29N 38°02' E 023°31'0 0.0
2018-Jun-15 14:59N 38°02' E 023°31'0 0.0
2018-Jun-15 14:29N 38°02' E 023°31'0 0.0
2018-Jun-15 13:59N 38°02' E 023°31'0 0.0
2018-Jun-15 13:29N 38°02' E 023°31'0 0.0
2018-Jun-15 12:59N 38°02' E 023°31'0 0.0
2018-Jun-15 12:29N 38°02' E 023°31'0 0.0
2018-Jun-15 11:59N 38°02' E 023°31'0 0.0
2018-Jun-15 11:29N 38°02' E 023°31'0 0.0
2018-Jun-15 11:01N 38°02' E 023°31'1 2.1
2018-Jun-15 10:30N 38°01' E 023°31'3 5.8
2018-Jun-15 10:00N 37°59' E 023°33'4 8.6
2018-Jun-15 09:30N 37°56' E 023°37'510.1
2018-Jun-15 09:00N 37°51' E 023°40'510.3
2018-Jun-15 08:30N 37°46' E 023°42'510.5
2018-Jun-15 08:00N 37°42' E 023°45'  
Track history (hours):
 
Tides and Currents Weather Stations Pressure Air Temp Water Temp Dewpoint Dewpoint Depression Visibility Wind Speed Wind Dir Waves Ship Positions

Eviapetrol II

Last reported at 2018-Jun-23 09:30 UTC. Time now 2018-Jun-23 09:51 UTC.
Position N 37°54' E 023°07'.

Length 78 m; draft 4.1 m.

Type: Tanker. MMSI: 240493000.

Date/timePositionNaut miles runAvg speedWind from/ knotsBaromVisibWave heightAir tempDewpointWater temp
2018-Jun-23 09:30N 37°54' E 023°07'4 8.5
2018-Jun-23 09:00N 37°54' E 023°02'4 6.7
2018-Jun-23 08:26N 37°57' E 022°58'3 6.5
2018-Jun-23 08:00N 37°58' E 022°55'5 9.9
2018-Jun-23 07:30N 38°01' E 022°50'510.5
2018-Jun-23 07:00N 38°04' E 022°44'610.7
2018-Jun-23 06:29N 38°06' E 022°38'  
2018-Jun-20 01:55N 38°05' E 022°42'4 9.3
2018-Jun-20 01:30N 38°03' E 022°46'5 9.3
2018-Jun-20 01:00N 38°00' E 022°51'5 9.0
2018-Jun-20 00:30N 37°58' E 022°56'4 5.8
2018-Jun-19 23:46N 37°55' E 023°00'1 5.0
2018-Jun-19 23:30N 37°55' E 023°01'4 7.7
2018-Jun-19 23:01N 37°53' E 023°06'5 9.2
2018-Jun-19 22:30N 37°54' E 023°12'5 9.6
2018-Jun-19 22:00N 37°56' E 023°17'5 9.3
2018-Jun-19 21:30N 37°57' E 023°23'3 5.8
2018-Jun-19 21:00N 37°59' E 023°25'4 7.4
2018-Jun-19 20:30N 38°01' E 023°29'1 2.8
2018-Jun-19 19:59N 38°01' E 023°31'0 0.0
2018-Jun-19 19:29N 38°01' E 023°31'0 0.0
2018-Jun-19 18:59N 38°01' E 023°31'0 0.0
2018-Jun-19 18:29N 38°01' E 023°31'0 0.0
2018-Jun-19 17:59N 38°01' E 023°31'0 0.0
2018-Jun-19 17:23N 38°01' E 023°31'0 0.0
2018-Jun-19 16:59N 38°01' E 023°31'0 0.0
2018-Jun-19 16:30N 38°01' E 023°31'0 0.0
2018-Jun-19 16:00N 38°01' E 023°31'1 1.4
2018-Jun-19 15:30N 38°02' E 023°30'0 0.4
2018-Jun-19 14:58N 38°02' E 023°31'0 0.0
2018-Jun-19 14:28N 38°02' E 023°31'0 0.0
2018-Jun-19 13:58N 38°02' E 023°31'0 0.0
2018-Jun-19 13:28N 38°02' E 023°31'0 0.0
2018-Jun-19 12:58N 38°02' E 023°31'0 0.0
2018-Jun-19 12:28N 38°02' E 023°31'0 0.0
2018-Jun-19 11:58N 38°02' E 023°31'0 0.0
2018-Jun-19 11:25N 38°02' E 023°31'0 0.0
2018-Jun-19 10:58N 38°02' E 023°31'0 0.0
2018-Jun-19 10:25N 38°02' E 023°31'0 0.0
2018-Jun-19 09:58N 38°02' E 023°31'0 0.0
2018-Jun-19 09:28N 38°02' E 023°31'0 0.0
2018-Jun-19 08:58N 38°02' E 023°31'0 0.0
2018-Jun-19 08:28N 38°02' E 023°31'0 0.0
2018-Jun-19 07:55N 38°02' E 023°31'0 0.0
2018-Jun-19 07:28N 38°02' E 023°31'0 0.0
2018-Jun-19 06:58N 38°02' E 023°31'0 0.0
2018-Jun-19 06:28N 38°02' E 023°31'0 0.0
2018-Jun-19 05:58N 38°02' E 023°31'0 0.0
2018-Jun-19 05:28N 38°02' E 023°31'0 0.0
2018-Jun-19 04:55N 38°02' E 023°31'0 0.0
2018-Jun-19 04:28N 38°02' E 023°31'0 0.0
2018-Jun-19 03:55N 38°02' E 023°31'0 0.0
2018-Jun-19 03:28N 38°02' E 023°31'0 0.0
2018-Jun-19 02:58N 38°02' E 023°31'0 0.0
2018-Jun-19 02:28N 38°02' E 023°31'0 0.0
2018-Jun-19 01:58N 38°02' E 023°31'0 0.0
2018-Jun-19 01:28N 38°02' E 023°31'0 0.0
2018-Jun-19 00:58N 38°02' E 023°31'0 0.0
2018-Jun-19 00:28N 38°02' E 023°31'0 0.0
2018-Jun-18 23:58N 38°02' E 023°31'0 0.3
2018-Jun-18 23:30N 38°02' E 023°30'1 1.2
2018-Jun-18 22:52N 38°01' E 023°31'0 0.1
2018-Jun-18 22:30N 38°01' E 023°31'0 0.0
2018-Jun-18 22:00N 38°01' E 023°31'0 0.0
2018-Jun-18 21:30N 38°01' E 023°31'0 0.0
2018-Jun-18 21:00N 38°01' E 023°31'0 0.0
2018-Jun-18 20:30N 38°01' E 023°31'0 0.1
2018-Jun-18 19:59N 38°01' E 023°31'2 4.4
2018-Jun-18 19:31N 38°01' E 023°29'3 6.9
2018-Jun-18 19:01N 37°59' E 023°25'3 5.8
2018-Jun-18 18:30N 37°57' E 023°23'5 9.3
2018-Jun-18 18:01N 37°55' E 023°17'5 9.3
2018-Jun-18 17:31N 37°54' E 023°11'5 9.3
2018-Jun-18 17:00N 37°53' E 023°06'4 8.1
2018-Jun-18 16:31N 37°55' E 023°01'3 5.8
2018-Jun-18 16:01N 37°57' E 022°58'3 3.1
2018-Jun-18 15:13N 37°58' E 022°55'1 6.1
2018-Jun-18 15:00N 37°59' E 022°54'5 9.5
2018-Jun-18 14:31N 38°01' E 022°49'5 9.5
2018-Jun-18 13:57N 38°04' E 022°43'  
2018-Jun-16 09:04N 38°05' E 022°41'1 9.5
2018-Jun-16 08:57N 38°05' E 022°42'5 9.5
2018-Jun-16 08:26N 38°02' E 022°48'4 9.4
2018-Jun-16 08:00N 38°00' E 022°52'4 8.7
2018-Jun-16 07:30N 37°58' E 022°57'4 4.7
2018-Jun-16 06:43N 37°55' E 023°00'1 4.5
2018-Jun-16 06:30N 37°55' E 023°01'2 3.5
2018-Jun-16 06:00N 37°54' E 023°03'4 7.6
2018-Jun-16 05:30N 37°54' E 023°08'5 9.1
2018-Jun-16 05:00N 37°55' E 023°13'5 9.3
2018-Jun-16 04:30N 37°56' E 023°19'4 8.7
2018-Jun-16 04:00N 37°57' E 023°24'3 5.5
2018-Jun-16 03:30N 37°60' E 023°26'4 7.1
2018-Jun-16 03:00N 38°01' E 023°30'0 0.3
2018-Jun-16 02:30N 38°01' E 023°30'0 0.3
2018-Jun-16 02:00N 38°01' E 023°30'0 0.5
2018-Jun-16 01:30N 38°02' E 023°30'1 1.0
2018-Jun-16 00:59N 38°02' E 023°31'0 0.0
2018-Jun-16 00:29N 38°02' E 023°31'0 0.0
2018-Jun-15 23:59N 38°02' E 023°31'0 0.0
2018-Jun-15 23:29N 38°02' E 023°31'0 0.0
2018-Jun-15 22:59N 38°02' E 023°31'0 0.0
2018-Jun-15 22:29N 38°02' E 023°31'0 0.0
2018-Jun-15 21:59N 38°02' E 023°31'0 0.0
2018-Jun-15 21:29N 38°02' E 023°31'0 0.0
2018-Jun-15 20:53N 38°02' E 023°31'0 0.0
2018-Jun-15 20:29N 38°02' E 023°31'0 0.0
2018-Jun-15 19:50N 38°02' E 023°31'0 0.0
2018-Jun-15 19:26N 38°02' E 023°31'0 0.0
2018-Jun-15 18:53N 38°02' E 023°31'0 0.0
2018-Jun-15 18:29N 38°02' E 023°31'0 0.0
2018-Jun-15 17:59N 38°02' E 023°31'0 0.0
2018-Jun-15 17:29N 38°02' E 023°31'0 0.0
2018-Jun-15 16:59N 38°02' E 023°31'0 0.0
2018-Jun-15 16:26N 38°02' E 023°31'0 0.0
2018-Jun-15 15:56N 38°02' E 023°31'0 0.0
2018-Jun-15 15:29N 38°02' E 023°31'0 0.0
2018-Jun-15 14:59N 38°02' E 023°31'0 0.0
2018-Jun-15 14:29N 38°02' E 023°31'0 0.0
2018-Jun-15 13:59N 38°02' E 023°31'0 0.0
2018-Jun-15 13:29N 38°02' E 023°31'0 0.0
2018-Jun-15 12:59N 38°02' E 023°31'0 0.0
2018-Jun-15 12:29N 38°02' E 023°31'0 0.0
2018-Jun-15 11:59N 38°02' E 023°31'0 0.0
2018-Jun-15 11:29N 38°02' E 023°31'0 0.0
2018-Jun-15 11:01N 38°02' E 023°31'1 2.1
2018-Jun-15 10:30N 38°01' E 023°31'3 5.8
2018-Jun-15 10:00N 37°59' E 023°33'4 8.6
2018-Jun-15 09:30N 37°56' E 023°37'510.1
2018-Jun-15 09:00N 37°51' E 023°40'510.3
2018-Jun-15 08:30N 37°46' E 023°42'510.5
2018-Jun-15 08:00N 37°42' E 023°45'  

Dump ship's entire track history